Time;durP1;ratioP1;P1;durP2;ratioP2;P2;SDS_P1;SDS_P2;PMS_P1;PMS_P2;Temp;Humidity;BMP_temperature;BMP_pressure;BME280_temperature;BME280_humidity;BME280_pressure;Samples;Min_cycle;Max_cycle;Signal;HPM_P1;HPM_P2
2022/04/04 00:07:19;;;;;;;;;20.25;19.00;;;;;6.47;51.28;102025.13;5958138;23;45447;-87
2022/04/04 00:09:58;;;;;;;;;17.50;17.00;;;;;6.27;51.22;102000.94;6037109;23;45277;-86
2022/04/04 00:12:27;;;;;;;;;18.00;16.25;;;;;6.35;51.01;102031.75;6088727;23;45185;-86
2022/04/04 00:19:49;;;;;;;;;;;;;;;;;;;;;
2022/04/04 00:23:11;;;;;;;;;21.00;17.25;;;;;6.13;51.30;101990.91;6070460;23;73356;-86
2022/04/04 00:25:55;;;;;;;;;18.75;18.75;;;;;6.27;51.07;102020.13;6036256;23;45387;-84
2022/04/04 00:28:34;;;;;;;;;22.50;18.50;;;;;6.19;51.04;102009.41;6128978;23;45404;-86
2022/04/04 00:31:14;;;;;;;;;22.50;19.50;;;;;6.13;51.35;102003.97;6129230;23;45402;-86
2022/04/04 00:33:53;;;;;;;;;20.25;18.00;;;;;6.20;51.49;102018.13;6131328;23;45176;-86
2022/04/04 00:36:29;;;;;;;;;;;;;;;;;;;;;
2022/04/04 00:39:26;;;;;;;;;;;;;;;;;;;;;
2022/04/04 00:42:06;;;;;;;;;17.00;16.50;;;;;6.07;51.82;102008.09;6134246;23;73978;-87
2022/04/04 00:44:45;;;;;;;;;19.25;13.50;;;;;5.89;51.75;101977.81;6127382;23;45432;-87
2022/04/04 00:47:26;;;;;;;;;;;;;;;;;;;;;
2022/04/04 00:50:22;;;;;;;;;17.75;17.75;;;;;5.81;51.75;101971.44;6128569;23;72994;-87
2022/04/04 00:53:01;;;;;;;;;;;;;;;;;;;;;
2022/04/04 00:55:32;;;;;;;;;17.00;16.25;;;;;5.91;52.04;101993.56;6127905;23;73141;-87
2022/04/04 01:09:00;;;;;;;;;20.00;15.25;;;;;5.88;52.10;102001.28;5954306;23;45448;-86
2022/04/04 01:11:33;;;;;;;;;;;;;;;;;;;;;
2022/04/04 01:13:59;;;;;;;;;18.25;17.25;;;;;5.69;52.79;101976.22;6130358;23;72354;-83
2022/04/04 01:16:25;;;;;;;;;25.00;21.50;;;;;5.76;52.83;101988.69;6103614;23;46734;-85
2022/04/04 01:19:03;;;;;;;;;22.25;19.75;;;;;5.80;52.50;101992.28;6104499;23;44826;-85
2022/04/04 01:21:39;;;;;;;;;19.50;19.25;;;;;5.59;52.50;101967.19;6103436;23;45368;-87
2022/04/04 01:24:07;;;;;;;;;18.00;17.50;;;;;5.69;52.37;101979.75;6131140;23;45282;-84
2022/04/04 01:26:38;;;;;;;;;13.50;12.00;;;;;5.69;52.36;101982.34;6130242;23;46153;-86
2022/04/04 01:29:12;;;;;;;;;19.75;19.00;;;;;5.71;52.67;101990.22;6129254;23;45469;-85
2022/04/04 01:31:46;;;;;;;;;14.75;14.00;;;;;5.69;52.48;101989.28;6127792;23;45341;-84
2022/04/04 01:35:38;;;;;;;;;;;;;;;;;;;;;
2022/04/04 01:38:21;;;;;;;;;;;;;;;;;;;;;
2022/04/04 01:41:18;;;;;;;;;19.25;18.75;;;;;5.46;52.81;101968.44;6129059;23;72033;-87
2022/04/04 01:59:03;;;;;;;;;20.25;16.75;;;;;5.42;53.45;101957.81;5726991;24;45488;-85
2022/04/04 02:02:06;;;;;;;;;21.25;18.50;;;;;5.40;53.30;101963.00;5800035;24;45496;-85
2022/04/04 02:08:28;;;;;;;;;;;;;;;;;;;;;
2022/04/04 02:11:51;;;;;;;;;;;;;;;;;;;;;
2022/04/04 02:14:47;;;;;;;;;16.00;14.75;;;;;5.28;53.47;101957.31;5884443;24;72767;-84
2022/04/04 02:17:23;;;;;;;;;14.25;14.00;;;;;5.27;53.36;101948.59;5914884;23;45722;-84
2022/04/04 02:20:27;;;;;;;;;;;;;;;;;;;;;
2022/04/04 02:23:32;;;;;;;;;;;;;;;;;;;;;
2022/04/04 02:32:38;;;;;;;;;11.00;11.00;;;;;5.16;53.36;101929.03;6110452;23;45145;-85
2022/04/04 02:35:27;;;;;;;;;;;;;;;;;;;;;
2022/04/04 02:38:21;;;;;;;;;13.00;11.00;;;;;5.21;53.27;101923.97;6128694;23;72740;-85
2022/04/04 02:41:49;;;;;;;;;11.00;11.00;;;;;5.20;53.35;101933.53;6095678;23;47845;-85
2022/04/04 02:44:17;;;;;;;;;14.50;11.00;;;;;5.12;53.72;101927.13;6116133;23;45379;-85
2022/04/04 02:47:13;;;;;;;;;;;;;;;;;;;;;
2022/04/04 02:50:38;;;;;;;;;;;;;;;;;;;;;
2022/04/04 02:53:46;;;;;;;;;15.50;13.50;;;;;5.14;53.54;101927.19;6067405;23;45318;-86
2022/04/04 03:03:46;;;;;;;;;;;;;;;;;;;;;
2022/04/04 03:06:18;;;;;;;;;14.75;11.00;;;;;5.08;53.50;101917.41;5920650;24;76475;-88
2022/04/04 03:08:46;;;;;;;;;13.00;11.75;;;;;5.05;53.54;101930.31;5902459;24;45505;-88
2022/04/04 03:11:48;;;;;;;;;15.50;14.50;;;;;4.99;53.84;101920.56;5982981;23;45306;-87
2022/04/04 03:14:14;;;;;;;;;16.25;14.75;;;;;5.01;53.92;101931.06;6069501;23;45339;-86
2022/04/04 03:17:08;;;;;;;;;12.25;10.00;;;;;4.99;53.67;101920.56;6128642;23;47023;-89
2022/04/04 03:19:56;;;;;;;;;13.00;11.00;;;;;4.97;54.04;101909.19;6132475;23;45362;-88
2022/04/04 03:22:22;;;;;;;;;12.50;12.50;;;;;4.83;53.60;101898.19;6129994;23;45231;-86
2022/04/04 03:24:47;;;;;;;;;11.25;10.00;;;;;4.92;53.60;101915.94;6131581;23;45317;-87
2022/04/04 03:27:21;;;;;;;;;10.75;10.75;;;;;4.85;54.02;101899.16;6127572;23;46082;-87
2022/04/04 03:30:55;;;;;;;;;;;;;;;;;;;;;
2022/04/04 03:33:57;;;;;;;;;12.50;12.50;;;;;4.81;54.05;101873.81;5951690;23;69738;-87
2022/04/04 03:37:13;;;;;;;;;;;;;;;;;;;;;
2022/04/04 03:46:17;;;;;;;;;13.75;11.00;;;;;4.60;53.78;101845.19;6109792;23;45220;-88
2022/04/04 03:54:51;;;;;;;;;10.75;10.75;;;;;4.81;53.93;101867.66;6118043;23;45219;-86
2022/04/04 03:57:44;;;;;;;;;21.00;16.00;;;;;4.58;53.81;101828.56;6127790;23;45341;-86
2022/04/04 04:00:42;;;;;;;;;17.50;14.50;;;;;4.83;53.38;101864.28;6110118;23;45100;-88
2022/04/04 04:03:34;;;;;;;;;17.25;14.75;;;;;4.60;53.51;101823.44;6103679;23;46689;-87
2022/04/04 04:06:36;;;;;;;;;;;;;;;;;;;;;
2022/04/04 04:12:18;;;;;;;;;17.25;14.75;;;;;4.58;53.58;101814.66;6103836;23;45372;-86
2022/04/04 04:15:06;;;;;;;;;11.75;10.50;;;;;4.80;53.51;101851.13;6114989;23;46824;-87
2022/04/04 04:21:30;;;;;;;;;;;;;;;;;;;;;
2022/04/04 04:24:21;;;;;;;;;14.25;14.25;;;;;4.72;53.69;101841.25;6133166;23;71866;-86
2022/04/04 04:27:09;;;;;;;;;15.00;11.50;;;;;4.75;53.33;101842.25;6126793;23;47040;-86
2022/04/04 04:29:58;;;;;;;;;;;;;;;;;;;;;
2022/04/04 04:32:46;;;;;;;;;16.75;15.50;;;;;4.54;53.33;101802.31;6128514;23;69458;-88
2022/04/04 04:36:14;;;;;;;;;;;;;;;;;;;;;
2022/04/04 04:46:05;;;;;;;;;14.00;13.25;;;;;4.71;53.21;101839.47;5789582;23;45254;-87
2022/04/04 04:49:27;;;;;;;;;;;;;;;;;;;;;
2022/04/04 04:52:21;;;;;;;;;11.75;10.75;;;;;4.68;53.39;101834.13;5969183;23;76697;-88
2022/04/04 04:55:06;;;;;;;;;;;;;;;;;;;;;
2022/04/04 04:57:34;;;;;;;;;22.50;15.50;;;;;4.64;53.33;101830.53;6066990;23;67870;-86
2022/04/04 05:00:06;;;;;;;;;17.25;16.75;;;;;4.54;53.37;101818.84;6123563;23;45169;-86
2022/04/04 05:05:55;;;;;;;;;14.25;14.00;;;;;4.62;53.40;101830.47;6115098;23;45233;-89
2022/04/04 05:08:20;;;;;;;;;15.50;14.50;;;;;4.59;53.81;101842.50;6100844;23;45338;-89
2022/04/04 05:10:46;;;;;;;;;19.50;17.00;;;;;4.37;53.90;101794.75;6100974;23;45178;-88
2022/04/04 05:13:13;;;;;;;;;13.75;13.75;;;;;4.60;53.68;101829.53;6101561;23;47107;-88
2022/04/04 05:15:39;;;;;;;;;16.50;14.50;;;;;4.55;53.70;101822.34;6101330;23;45160;-86
2022/04/04 05:18:04;;;;;;;;;21.25;16.50;;;;;4.59;53.92;101830.34;6128278;23;45195;-88
2022/04/04 05:20:30;;;;;;;;;15.25;15.25;;;;;4.32;53.64;101790.19;6127595;23;45390;-87
2022/04/04 05:22:57;;;;;;;;;16.00;14.00;;;;;4.39;54.02;101816.53;6127746;23;45484;-87
2022/04/04 05:25:23;;;;;;;;;14.00;14.00;;;;;4.36;53.68;101813.84;6101505;23;45394;-86
2022/04/04 05:27:50;;;;;;;;;15.00;15.00;;;;;4.39;54.07;101816.53;6100970;23;45192;-86
2022/04/04 05:30:16;;;;;;;;;15.75;15.50;;;;;4.42;53.65;101811.44;6129195;23;45496;-86
2022/04/04 05:32:43;;;;;;;;;21.50;14.50;;;;;4.54;54.30;101836.22;6101428;23;45291;-87
2022/04/04 05:35:09;;;;;;;;;17.00;17.00;;;;;4.29;54.31;101803.09;6128833;23;45232;-86
2022/04/04 05:37:35;;;;;;;;;15.50;14.75;;;;;4.43;54.73;101821.03;6102961;23;45181;-86
2022/04/04 05:40:03;;;;;;;;;19.25;16.75;;;;;4.24;54.19;101779.44;6126416;23;45386;-86
2022/04/04 05:42:29;;;;;;;;;17.75;15.00;;;;;4.34;54.07;101805.06;6110133;23;45711;-87
2022/04/04 05:44:55;;;;;;;;;18.00;17.00;;;;;4.39;54.38;101813.94;6139950;23;45762;-86
2022/04/04 05:47:20;;;;;;;;;14.00;11.00;;;;;4.24;53.58;101782.06;6107608;23;45272;-87
2022/04/04 05:49:48;;;;;;;;;14.50;13.25;;;;;4.33;54.50;101798.06;6127132;23;45156;-86
2022/04/04 05:52:15;;;;;;;;;13.75;13.50;;;;;4.31;54.09;101785.81;6101486;23;46105;-87
2022/04/04 05:54:54;;;;;;;;;14.75;14.75;;;;;4.51;54.44;101823.94;6125658;23;45579;-86
2022/04/04 05:57:34;;;;;;;;;18.25;17.50;;;;;4.33;54.52;101794.56;6101229;23;45375;-87
2022/04/04 06:00:00;;;;;;;;;16.25;14.00;;;;;4.51;54.22;101823.06;6125362;23;45792;-86
2022/04/04 06:02:28;;;;;;;;;14.00;11.50;;;;;4.28;54.21;101780.47;6101304;23;47161;-84
2022/04/04 06:04:55;;;;;;;;;18.25;17.00;;;;;4.39;54.01;101803.50;6127493;23;45226;-84
2022/04/04 06:07:21;;;;;;;;;18.75;17.50;;;;;4.33;53.87;101782.44;6125483;23;45279;-83
2022/04/04 06:09:46;;;;;;;;;19.50;17.00;;;;;4.54;54.13;101811.00;6127361;23;45472;-84
2022/04/04 06:12:12;;;;;;;;;18.75;14.75;;;;;4.42;54.20;101793.19;6100763;23;46964;-85
2022/04/04 06:14:38;;;;;;;;;19.50;18.00;;;;;4.52;54.33;101811.81;6127728;23;45207;-86
2022/04/04 06:17:05;;;;;;;;;21.25;20.25;;;;;4.56;53.99;101818.91;6101253;23;45145;-85
2022/04/04 06:19:34;;;;;;;;;18.00;17.00;;;;;4.59;54.31;101824.25;6101430;23;45276;-84
2022/04/04 06:22:00;;;;;;;;;18.00;18.00;;;;;4.62;54.17;101821.75;6100586;23;46845;-85
2022/04/04 06:24:25;;;;;;;;;19.25;17.25;;;;;4.51;53.78;101799.59;6125848;23;45232;-85
2022/04/04 06:26:51;;;;;;;;;12.75;10.50;;;;;4.39;53.87;101769.63;6125271;23;45332;-85
2022/04/04 06:29:16;;;;;;;;;14.75;14.75;;;;;4.57;54.02;101802.41;6127773;23;45871;-85
2022/04/04 06:31:44;;;;;;;;;17.25;15.50;;;;;4.60;53.93;101800.84;6100775;23;45943;-85
2022/04/04 06:34:10;;;;;;;;;12.50;11.00;;;;;4.66;53.66;101809.72;6101185;23;45972;-85
2022/04/04 06:36:37;;;;;;;;;12.75;11.75;;;;;4.61;54.06;101804.31;6127695;23;45116;-85
2022/04/04 06:39:03;;;;;;;;;11.25;11.25;;;;;4.63;54.05;101805.28;6125853;23;45388;-84
2022/04/04 06:41:30;;;;;;;;;15.00;14.25;;;;;4.54;53.80;101790.16;6125016;23;47510;-86
2022/04/04 06:43:56;;;;;;;;;15.00;13.75;;;;;4.58;53.89;101783.34;6101297;23;45137;-86
2022/04/04 06:46:22;;;;;;;;;14.25;13.50;;;;;4.75;54.25;101812.66;6100612;23;45164;-85
2022/04/04 06:48:50;;;;;;;;;12.25;12.25;;;;;4.61;53.54;101783.47;6125915;23;45461;-84
2022/04/04 06:51:16;;;;;;;;;15.25;11.50;;;;;4.63;54.07;101776.59;6127153;23;45509;-84
2022/04/04 06:53:42;;;;;;;;;13.50;11.75;;;;;4.62;53.71;101770.50;6127582;23;45322;-84
2022/04/04 06:56:07;;;;;;;;;15.00;14.50;;;;;4.77;54.00;101791.03;6100674;23;45255;-84
2022/04/04 06:58:33;;;;;;;;;10.50;10.00;;;;;4.76;53.95;101781.44;6126862;23;45443;-84
2022/04/04 07:00:59;;;;;;;;;14.75;10.75;;;;;4.92;53.71;101790.72;6127057;23;45722;-85
2022/04/04 07:03:25;;;;;;;;;14.00;13.25;;;;;4.78;53.27;101758.00;6100319;23;45382;-85
2022/04/04 07:05:50;;;;;;;;;10.00;8.25;;;;;4.97;53.32;101785.63;6127372;23;45317;-86
2022/04/04 07:08:16;;;;;;;;;13.50;11.00;;;;;4.93;52.55;101774.22;6100812;23;45457;-84
2022/04/04 07:10:41;;;;;;;;;10.00;9.00;;;;;5.04;52.69;101790.25;6100157;23;45981;-85
2022/04/04 07:16:46;;;;;;;;;11.75;10.50;;;;;4.85;51.58;101734.78;6100402;23;45409;-92
2022/04/04 07:19:15;;;;;;;;;10.00;9.00;;;;;4.94;51.49;101736.84;6100170;23;45710;-86
2022/04/04 07:21:42;;;;;;;;;8.75;7.00;;;;;5.08;51.07;101760.84;6095292;23;45984;-84
2022/04/04 07:24:08;;;;;;;;;9.00;6.00;;;;;5.13;50.70;101759.25;6075721;23;45966;-86
2022/04/04 07:26:34;;;;;;;;;5.75;5.75;;;;;5.26;49.95;101763.16;6100477;23;45352;-84
2022/04/04 07:28:59;;;;;;;;;8.50;6.25;;;;;5.25;49.86;101762.28;6125580;23;45540;-85
2022/04/04 07:31:25;;;;;;;;;10.00;7.00;;;;;5.24;50.02;101739.63;6100691;23;46696;-84
2022/04/04 07:33:51;;;;;;;;;10.00;7.75;;;;;5.34;49.91;101745.16;6126016;23;45499;-84
2022/04/04 07:36:17;;;;;;;;;9.75;8.25;;;;;5.46;50.13;101754.28;6124691;23;45449;-85
2022/04/04 07:38:42;;;;;;;;;11.75;10.25;;;;;5.33;50.05;101717.28;6124474;23;45452;-86
2022/04/04 07:41:10;;;;;;;;;12.50;11.50;;;;;5.37;49.71;101696.53;6101439;23;48282;-85
2022/04/04 07:43:36;;;;;;;;;6.00;6.00;;;;;5.73;50.01;101751.69;6129758;23;45268;-84
2022/04/04 07:46:08;;;;;;;;;6.25;6.25;;;;;5.71;49.55;101731.59;6129982;23;45127;-86
2022/04/04 07:48:33;;;;;;;;;9.00;6.75;;;;;5.68;48.88;101707.97;6105120;23;45375;-85
2022/04/04 07:50:59;;;;;;;;;7.75;6.50;;;;;5.91;48.76;101735.72;6132563;23;45499;-84
2022/04/04 07:53:24;;;;;;;;;7.00;7.00;;;;;5.90;48.27;101713.03;6104102;23;45307;-85
2022/04/04 07:55:50;;;;;;;;;6.00;3.50;;;;;6.04;47.68;101721.34;6128038;23;45302;-84
2022/04/04 07:58:17;;;;;;;;;5.00;3.00;;;;;6.23;46.85;101740.19;6130112;23;45373;-81
2022/04/04 08:00:44;;;;;;;;;2.50;2.50;;;;;6.19;46.66;101708.72;6128915;23;45153;-85
2022/04/04 08:03:10;;;;;;;;;3.75;3.75;;;;;6.33;46.70;101724.81;6102190;23;45193;-82
2022/04/04 08:05:39;;;;;;;;;5.50;4.00;;;;;6.30;46.05;101697.69;6128142;23;45420;-90
2022/04/04 08:08:04;;;;;;;;;4.50;4.50;;;;;6.34;46.26;101692.59;6104027;23;45368;-86
2022/04/04 08:10:30;;;;;;;;;5.75;5.75;;;;;6.46;45.64;101704.25;6104196;23;46800;-84
2022/04/04 08:12:55;;;;;;;;;3.25;3.25;;;;;6.61;44.96;101717.78;6105419;23;45296;-85
2022/04/04 08:15:21;;;;;;;;;3.50;3.50;;;;;6.70;45.34;101707.56;6107439;23;45371;-83
2022/04/04 08:17:47;;;;;;;;;7.00;5.50;;;;;6.79;45.40;101706.91;6141517;23;44890;-86
2022/04/04 08:20:13;;;;;;;;;6.00;6.00;;;;;6.80;45.07;101686.03;6113815;23;46948;-84
2022/04/04 08:22:45;;;;;;;;;6.00;4.25;;;;;7.09;45.04;101706.88;6138710;23;45224;-83
2022/04/04 08:26:02;;;;;;;;;;;;;;;;;;;;;
2022/04/04 08:28:30;;;;;;;;;5.75;5.75;;;;;7.16;43.56;101684.31;6141182;23;72049;-84
2022/04/04 08:31:11;;;;;;;;;4.50;4.50;;;;;7.22;43.38;101671.41;6145224;23;47003;-86
2022/04/04 08:39:37;;;;;;;;;2.00;2.00;;;;;7.68;42.49;101691.72;6208236;23;44891;-81
2022/04/04 08:56:05;;;;;;;;;4.00;2.50;;;;;8.40;40.78;101676.72;6056297;23;45037;-91
2022/04/04 08:59:40;;;;;;;;;2.00;2.00;;;;;8.34;40.47;101653.84;5966862;23;45443;-86
2022/04/04 09:43:26;;;;;;;;;;;;;;;;;;;;;
2022/04/04 09:49:52;;;;;;;;;2.25;1.75;;;;;9.65;34.73;101611.41;6035197;23;45636;-87
2022/04/04 09:56:16;;;;;;;;;2.75;2.00;;;;;9.70;34.52;101608.03;5978226;23;45263;-84
2022/04/04 09:59:25;;;;;;;;;;;;;;;;;;;;;
2022/04/04 10:01:50;;;;;;;;;;;;;;;;;;;;;
2022/04/04 10:05:01;;;;;;;;;1.50;1.50;;;;;9.77;33.08;101598.47;6181424;22;70724;-84
2022/04/04 10:08:08;;;;;;;;;3.00;2.00;;;;;9.80;34.08;101602.88;6172464;22;45600;-83
2022/04/04 10:11:00;;;;;;;;;1.00;1.00;;;;;9.97;33.43;101596.09;6216179;22;46123;-84
2022/04/04 10:13:34;;;;;;;;;1.50;1.50;;;;;10.10;32.20;101581.31;6181985;22;45529;-82
2022/04/04 10:16:06;;;;;;;;;2.00;2.00;;;;;10.20;32.67;101577.06;6188204;22;45349;-84
2022/04/04 10:18:33;;;;;;;;;2.00;2.00;;;;;10.33;32.79;101574.59;6212256;22;45681;-84
2022/04/04 10:21:03;;;;;;;;;2.50;2.50;;;;;10.50;31.58;101579.16;6184299;22;46407;-84
2022/04/04 10:23:30;;;;;;;;;2.50;2.00;;;;;10.55;32.06;101561.66;6186041;22;45512;-82
2022/04/04 10:26:00;;;;;;;;;2.00;2.00;;;;;10.75;31.23;101572.41;6186659;22;45650;-82
2022/04/04 10:28:30;;;;;;;;;2.75;2.75;;;;;10.98;31.97;101565.53;6184501;22;45731;-83
2022/04/04 10:31:02;;;;;;;;;3.75;2.50;;;;;11.03;31.12;101531.34;6187167;22;47600;-85
2022/04/04 10:33:30;;;;;;;;;2.00;2.00;;;;;11.25;31.08;101550.81;6211565;22;45534;-83
2022/04/04 10:36:03;;;;;;;;;3.25;3.25;;;;;11.25;30.84;101535.91;6186122;22;45728;-83
2022/04/04 10:38:55;;;;;;;;;2.00;0.75;;;;;11.31;30.60;101527.13;6185153;22;45660;-85
2022/04/04 10:41:29;;;;;;;;;3.00;3.00;;;;;11.50;31.11;101541.31;6091617;23;45730;-85
2022/04/04 10:43:57;;;;;;;;;2.00;2.00;;;;;11.74;31.10;101532.63;6179934;22;45613;-85
2022/04/04 10:46:28;;;;;;;;;5.25;3.00;;;;;11.91;31.10;101540.63;6214933;22;45324;-85
2022/04/04 10:48:59;;;;;;;;;1.75;1.75;;;;;12.01;30.29;101534.50;6186755;22;45288;-84
2022/04/04 10:51:36;;;;;;;;;2.00;2.00;;;;;12.13;30.57;101534.56;6185207;22;46378;-84
2022/04/04 10:54:22;;;;;;;;;3.50;3.00;;;;;12.05;29.47;101503.72;6186309;22;45538;-84
2022/04/04 10:56:47;;;;;;;;;3.00;3.00;;;;;12.18;29.99;101523.97;6212014;22;45409;-84
2022/04/04 10:59:16;;;;;;;;;3.00;2.25;;;;;12.23;29.82;101508.16;6185563;22;45516;-83
2022/04/04 11:01:56;;;;;;;;;3.25;3.00;;;;;12.17;29.51;101505.53;6185808;22;46721;-83
2022/04/04 11:04:36;;;;;;;;;3.75;3.75;;;;;12.18;29.47;101488.78;6185930;22;45350;-81
2022/04/04 11:10:06;;;;;;;;;3.50;3.50;;;;;12.28;29.24;101490.56;6212897;22;45606;-81
2022/04/04 11:12:54;;;;;;;;;3.00;3.00;;;;;12.34;29.21;101494.09;6184859;22;46874;-82
2022/04/04 11:15:53;;;;;;;;;2.00;2.00;;;;;12.38;29.18;101487.06;6214997;22;45361;-83
2022/04/04 11:18:19;;;;;;;;;4.00;4.00;;;;;12.43;29.36;101487.97;6186693;22;45357;-81
2022/04/04 11:20:50;;;;;;;;;5.00;4.00;;;;;12.49;29.41;101474.75;6185429;22;45709;-82
2022/04/04 11:23:17;;;;;;;;;3.50;2.75;;;;;12.57;29.53;101472.97;6211806;22;45374;-80
2022/04/04 11:25:49;;;;;;;;;3.75;3.75;;;;;12.62;28.89;101467.72;6183990;22;45373;-81
2022/04/04 11:28:17;;;;;;;;;4.50;4.50;;;;;12.63;28.70;101465.94;6184136;22;45401;-81
2022/04/04 11:30:43;;;;;;;;;4.50;4.50;;;;;12.64;28.79;101459.75;6210781;22;45518;-81
2022/04/04 11:33:12;;;;;;;;;9.75;6.00;;;;;12.57;28.88;101448.34;6211832;22;46090;-82
2022/04/04 11:35:38;;;;;;;;;6.00;6.00;;;;;12.65;29.54;101449.22;6211056;22;45492;-82
2022/04/04 11:38:07;;;;;;;;;5.00;4.00;;;;;12.76;29.51;101444.78;6184378;22;45459;-82
2022/04/04 11:40:38;;;;;;;;;6.00;4.75;;;;;12.94;29.70;101459.75;6211086;22;45475;-83
2022/04/04 11:43:09;;;;;;;;;5.00;5.00;;;;;13.14;29.75;101435.00;6184518;22;47104;-83
2022/04/04 11:45:37;;;;;;;;;8.00;5.50;;;;;13.23;29.45;101432.31;6182883;22;45704;-83
2022/04/04 11:48:26;;;;;;;;;3.00;3.00;;;;;13.26;29.13;101435.00;6213615;22;45315;-83
2022/04/04 11:50:58;;;;;;;;;5.00;4.00;;;;;13.20;29.82;101427.03;6184223;22;45492;-82
2022/04/04 11:53:26;;;;;;;;;4.00;4.00;;;;;13.23;30.15;101414.72;6185303;22;47207;-83
2022/04/04 11:56:02;;;;;;;;;6.00;5.00;;;;;13.21;29.83;101423.53;6211422;22;45468;-83
2022/04/04 11:58:29;;;;;;;;;6.00;5.00;;;;;13.06;29.83;101435.03;6211777;22;45376;-82
2022/04/04 12:01:04;;;;;;;;;6.00;6.00;;;;;13.04;30.12;101415.66;6212194;22;45592;-85
2022/04/04 12:03:32;;;;;;;;;8.50;6.00;;;;;13.01;30.55;101416.53;6213662;22;46427;-84
2022/04/04 12:05:59;;;;;;;;;5.25;4.25;;;;;13.00;30.66;101420.06;6211355;22;45484;-82
2022/04/04 12:08:26;;;;;;;;;5.00;4.75;;;;;12.94;30.70;101433.31;6212878;22;45329;-84
2022/04/04 12:10:52;;;;;;;;;4.00;4.00;;;;;12.79;30.92;101428.91;6212024;22;45871;-83
2022/04/04 12:13:21;;;;;;;;;4.75;4.75;;;;;12.73;31.01;101415.72;6213820;22;46032;-84
2022/04/04 12:16:46;;;;;;;;;6.00;6.00;;;;;12.63;31.19;101413.09;6210993;22;45755;-84
2022/04/04 12:19:32;;;;;;;;;;;;;;;;;;;;;
2022/04/04 12:25:14;;;;;;;;;7.25;6.00;;;;;12.40;31.84;101424.56;6176538;22;45731;-86
2022/04/04 12:28:03;;;;;;;;;4.50;4.50;;;;;12.34;31.73;101420.16;6184541;22;45784;-86
2022/04/04 12:30:43;;;;;;;;;5.00;4.25;;;;;12.27;31.99;101420.16;6212932;22;45544;-85
2022/04/04 12:33:35;;;;;;;;;4.75;4.75;;;;;12.22;32.23;101412.25;6170800;23;45690;-86
2022/04/04 12:36:40;;;;;;;;;5.50;5.00;;;;;12.11;32.12;101392.91;6154563;23;47102;-85
2022/04/04 12:39:26;;;;;;;;;5.50;4.75;;;;;12.13;32.64;101406.97;6151774;23;46099;-86
2022/04/04 12:41:56;;;;;;;;;6.50;6.00;;;;;12.14;32.82;101406.97;6179908;23;45580;-83
2022/04/04 12:45:34;;;;;;;;;6.25;6.25;;;;;12.04;32.96;101392.00;6154152;23;45633;-85
2022/04/04 12:48:24;;;;;;;;;5.50;4.75;;;;;11.90;33.28;101401.69;6099348;23;46298;-87
2022/04/04 12:50:50;;;;;;;;;5.50;3.25;;;;;11.88;33.45;101399.00;6077480;23;45713;-84
2022/04/04 12:53:19;;;;;;;;;4.75;4.75;;;;;11.81;34.24;101393.69;6154990;23;45306;-84
2022/04/04 12:56:06;;;;;;;;;8.25;7.50;;;;;11.82;34.68;101406.91;6179872;23;45262;-85
2022/04/04 12:58:33;;;;;;;;;6.25;5.75;;;;;11.77;35.30;101402.50;6155982;23;47360;-86
2022/04/04 13:01:27;;;;;;;;;8.50;7.00;;;;;11.69;35.50;101390.16;6154479;23;45931;-84
2022/04/04 13:04:21;;;;;;;;;5.75;5.00;;;;;11.67;35.57;101410.38;6183247;23;45543;-89
2022/04/04 13:06:48;;;;;;;;;7.25;6.50;;;;;11.61;35.78;101391.03;6147659;23;45593;-84
2022/04/04 13:09:24;;;;;;;;;7.00;7.00;;;;;11.58;35.67;101370.81;6182811;23;45452;-84
2022/04/04 13:11:57;;;;;;;;;7.00;6.00;;;;;11.60;35.74;101366.41;6155008;23;45408;-85
2022/04/04 13:14:24;;;;;;;;;4.00;4.00;;;;;11.64;35.87;101365.53;6156702;23;45530;-87
2022/04/04 13:16:56;;;;;;;;;6.00;6.00;;;;;11.72;35.71;101364.69;6180403;23;45802;-84
2022/04/04 13:19:23;;;;;;;;;10.00;7.00;;;;;11.78;35.85;101359.41;6156393;23;46720;-84
2022/04/04 13:21:53;;;;;;;;;5.25;5.00;;;;;11.75;35.77;101341.81;6155455;23;45488;-85
2022/04/04 13:31:04;;;;;;;;;6.50;4.00;;;;;12.12;35.80;101357.69;6047107;23;46097;-86
2022/04/04 13:33:41;;;;;;;;;8.75;7.00;;;;;12.06;36.08;101348.03;6177339;23;45643;-86
2022/04/04 13:36:07;;;;;;;;;6.50;5.25;;;;;12.15;36.07;101352.41;6156814;23;45445;-86
2022/04/04 13:38:44;;;;;;;;;8.25;5.00;;;;;12.07;36.29;101346.25;6157102;23;45678;-87
2022/04/04 13:41:10;;;;;;;;;6.25;5.75;;;;;12.03;36.76;101362.97;6203730;22;45333;-85
2022/04/04 13:43:36;;;;;;;;;6.25;6.00;;;;;11.85;37.09;101333.03;6155956;23;45529;-84
2022/04/04 13:46:41;;;;;;;;;;;;;;;;;;;;;
2022/04/04 13:49:07;;;;;;;;;6.00;6.00;;;;;11.74;37.79;101333.91;6181338;23;71436;-86
2022/04/04 13:51:56;;;;;;;;;9.00;6.25;;;;;11.76;38.24;101332.13;6180832;23;46132;-84
2022/04/04 13:55:19;;;;;;;;;7.50;7.00;;;;;11.72;37.81;101330.38;6161313;23;45363;-88
2022/04/04 13:58:03;;;;;;;;;6.00;6.00;;;;;11.72;38.69;101339.16;6147225;23;45360;-84
2022/04/04 14:00:35;;;;;;;;;8.75;8.75;;;;;11.68;38.74;101327.75;6159701;23;45492;-88
2022/04/04 14:03:27;;;;;;;;;7.00;6.00;;;;;11.72;39.36;101340.94;6158306;23;46910;-86
2022/04/04 14:06:06;;;;;;;;;;;;;;;;;;;;;
2022/04/04 14:09:17;;;;;;;;;8.50;7.00;;;;;11.64;39.20;101320.69;6181819;23;67130;-85
2022/04/04 14:12:34;;;;;;;;;7.50;7.25;;;;;11.67;39.64;101338.28;6169740;23;45460;-86
2022/04/04 14:22:38;;;;;;;;;13.50;9.75;;;;;11.43;40.46;101313.63;6007003;23;44960;-93
2022/04/04 14:25:13;;;;;;;;;11.00;9.00;;;;;11.32;40.95;101307.47;6009286;23;45299;-85
2022/04/04 14:30:58;;;;;;;;;9.00;7.50;;;;;11.28;41.15;101303.06;6028829;23;45490;-85
2022/04/04 14:33:46;;;;;;;;;8.75;8.00;;;;;11.20;41.21;101287.25;6070712;23;46697;-87
2022/04/04 14:39:35;;;;;;;;;9.25;9.25;;;;;11.12;41.48;101272.25;6151768;23;45488;-85
2022/04/04 14:42:00;;;;;;;;;9.25;7.25;;;;;11.22;40.99;101279.31;6157800;23;45262;-84
2022/04/04 14:44:38;;;;;;;;;5.75;5.75;;;;;11.14;41.02;101270.50;6159425;23;45243;-84
2022/04/04 14:50:47;;;;;;;;;10.00;8.50;;;;;11.12;41.00;101267.00;6173415;23;45979;-85
2022/04/04 14:53:30;;;;;;;;;9.50;8.00;;;;;11.17;41.04;101278.41;6163657;23;44789;-86
2022/04/04 14:56:54;;;;;;;;;9.00;7.75;;;;;11.17;41.48;101297.78;6181125;23;45306;-87
2022/04/04 15:02:22;;;;;;;;;7.75;7.00;;;;;11.06;42.05;101272.25;6175301;23;46205;-84
2022/04/04 15:04:47;;;;;;;;;7.50;7.00;;;;;10.93;42.62;101252.88;6185707;23;45468;-84
2022/04/04 15:07:16;;;;;;;;;6.00;6.00;;;;;11.00;42.82;101263.44;6192043;23;45502;-85
2022/04/04 15:09:53;;;;;;;;;6.00;4.75;;;;;10.88;43.41;101242.34;6156676;23;45500;-87
2022/04/04 15:12:19;;;;;;;;;6.25;6.00;;;;;10.93;43.48;101240.63;6185854;23;45718;-84
2022/04/04 15:14:48;;;;;;;;;8.75;6.75;;;;;10.88;44.08;101239.72;6157335;23;45376;-83
2022/04/04 15:17:22;;;;;;;;;11.25;7.25;;;;;10.83;44.11;101238.81;6183042;23;45341;-85
2022/04/04 15:19:57;;;;;;;;;9.00;9.00;;;;;10.90;45.13;101252.88;6158865;23;45558;-85
2022/04/04 16:16:05;;;;;;;;;;;;;;;;;;;;;
2022/04/04 16:33:43;;;;;;;;;10.50;10.50;;;;;10.59;46.57;101218.56;5791620;24;45502;-94
2022/04/04 17:01:01;;;;;;;;;13.00;12.25;;;;;10.59;47.50;101223.81;6191303;23;45162;-91
2022/04/04 17:04:07;;;;;;;;;10.00;10.00;;;;;10.55;47.07;101220.28;6153118;23;45303;-86
2022/04/04 17:10:37;;;;;;;;;;;;;;;;;;;;;
2022/04/04 17:16:25;;;;;;;;;10.25;10.25;;;;;10.32;47.97;101217.56;6091876;23;45397;-85
2022/04/04 17:26:48;;;;;;;;;;;;;;;;;;;;;
2022/04/04 17:30:26;;;;;;;;;9.50;8.25;;;;;10.26;48.35;101213.97;6059452;23;72558;-87
2022/04/04 17:33:02;;;;;;;;;14.00;13.25;;;;;10.26;48.30;101206.94;6064482;23;45960;-84
2022/04/04 17:36:15;;;;;;;;;;;;;;;;;;;;;
2022/04/04 17:39:41;;;;;;;;;14.50;13.25;;;;;10.24;47.92;101207.84;6065799;23;68049;-85
2022/04/04 17:42:07;;;;;;;;;14.50;13.00;;;;;10.19;48.37;101199.03;6078390;23;45419;-84
2022/04/04 17:45:23;;;;;;;;;;;;;;;;;;;;;
2022/04/04 17:47:48;;;;;;;;;15.00;14.75;;;;;10.12;47.93;101192.84;6183459;23;72171;-83
2022/04/04 17:50:15;;;;;;;;;9.00;9.00;;;;;10.08;48.08;101202.50;6184199;23;45289;-83
2022/04/04 17:52:46;;;;;;;;;12.00;12.00;;;;;10.10;48.29;101208.66;6185249;23;45657;-84
2022/04/04 17:55:15;;;;;;;;;13.75;12.50;;;;;10.02;48.39;101196.28;6183150;23;47246;-83
2022/04/04 17:57:46;;;;;;;;;16.25;15.00;;;;;10.01;48.33;101191.91;6188076;23;45317;-83
2022/04/04 18:00:19;;;;;;;;;15.75;14.00;;;;;9.99;48.78;101186.63;6184642;23;45276;-83